Flight Track Log - Related Links

Times and Time Zones

All times are in EDT time to prevent confusion due to time zone crossing. See the UAL4588 flight status page for this flight to view local times or setup timezone preferences in your user account.

Time Position Orientation Groundspeed Altitude Reporting Facility
EDT Latitude Longitude Course Direction KTS MPH feet Rate Location/Type
Sun 07:41:37 AM 30.3811 -89.1133 284° West 238 274 2,700  Level Houston Center
Sun 07:42:38 AM 30.4000 -89.1875 286° West 238 274 5,100 2,459 Climbing Houston Center
Sun 07:43:00 AM 30.3870 -89.5195 286° West  Level Estimated
Sun 07:43:39 AM 30.4217 -89.2658 288° West 251 289 7,700  Level Houston Center
Sun 07:44:00 AM 30.3817 -89.6319 288° West  Level Estimated
Sun 07:44:39 AM 30.4431 -89.3411 288° West 249 287 10,300  Level Houston Center
Sun 07:45:00 AM 30.4474 -89.7147 313° West  Level FlightAware Approximate
Sun 07:45:40 AM 30.4639 -89.4189 287° West 250 288 11,800  Level Houston Center
Sun 07:46:00 AM 30.4405 -89.8273 284° West  Level Estimated
Sun 07:46:40 AM 30.4886 -89.5106 287° West 287 330 12,500  Level Houston Center
Sun 07:47:41 AM 30.5233 -89.6361 288° West 335 386 13,700 1,180 Climbing Houston Center
Sun 07:48:42 AM 30.5528 -89.7414 288° West 344 396 14,900 1,140 Climbing Houston Center
Sun 07:49:42 AM 30.5803 -89.8494 286° West 352 405 16,000 1,140 Climbing Houston Center
Sun 07:50:43 AM 30.6094 -89.9572 287° West 353 406 17,200 1,091 Climbing Houston Center
Sun 07:51:43 AM 30.6375 -90.0650 287° West 351 404 18,200 1,091 Climbing Houston Center
Sun 07:52:44 AM 30.6667 -90.1733 287° West 353 406 19,400 1,131 Climbing Houston Center
Sun 07:53:45 AM 30.6958 -90.2844 287° West 359 413 20,500 1,140 Climbing Houston Center
Sun 07:54:45 AM 30.7244 -90.3961 287° West 362 417 21,700 1,091 Climbing Houston Center
Sun 07:55:46 AM 30.7547 -90.5103 287° West 371 427 22,700 934 Climbing Houston Center
Sun 07:56:47 AM 30.7850 -90.6264 287° West 375 432 23,600 645 Climbing Houston Center
Sun 07:57:47 AM 30.8164 -90.7444 287° West 384 442 24,000 198 Climbing Houston Center
Sun 07:58:48 AM 30.8475 -90.8697 286° West 402 463 24,000  Level Houston Center
Sun 07:59:48 AM 30.8867 -91.0214 287° West 407 468 24,000  Level Houston Center
Sun 08:00:49 AM 30.9181 -91.1428 287° West 403 464 24,000  Level Houston Center
Sun 08:01:50 AM 30.9119 -91.2719 267° West 408 470 24,000  Level Houston Center
Sun 08:02:50 AM 30.8847 -91.3953 256° West 396 456 24,000  Level Houston Center
Sun 08:03:51 AM 30.8586 -91.5197 256° West 395 455 24,000  Level Houston Center
Sun 08:04:52 AM 30.8292 -91.6503 255° West 408 470 24,000  Level Houston Center
Sun 08:05:52 AM 30.8008 -91.7806 256° West 413 475 24,000  Level Houston Center
Sun 08:06:53 AM 30.7708 -91.9114 255° West 416 479 24,000  Level Houston Center
Sun 08:07:54 AM 30.7414 -92.0447 256° West 420 483 24,000  Level Houston Center
Sun 08:08:55 AM 30.7111 -92.1750 255° West 419 482 24,000  Level Houston Center
Sun 08:09:55 AM 30.6822 -92.3028 255° West 412 474 24,000  Level Houston Center
Sun 08:10:56 AM 30.6550 -92.4250 256° West 396 456 24,000  Level Houston Center
Sun 08:11:57 AM 30.6281 -92.5450 255° West 386 444 24,000  Level Houston Center
Sun 08:12:58 AM 30.6000 -92.6619 254° West 387 445 24,000  Level Houston Center
Sun 08:13:59 AM 30.5728 -92.7828 255° West 389 448 24,000  Level Houston Center
Sun 08:14:59 AM 30.5453 -92.9025 255° West 386 444 24,000  Level Houston Center
Sun 08:16:00 AM 30.5114 -93.0458 255° West 384 442 24,000  Level Houston Center
Sun 08:17:01 AM 30.4842 -93.1647 255° West 382 440 24,000  Level Houston Center
Sun 08:18:01 AM 30.4572 -93.2792 255° West 374 430 24,000  Level Houston Center
Sun 08:19:02 AM 30.4308 -93.3928 255° West 369 425 24,000  Level Houston Center
Sun 08:20:03 AM 30.4022 -93.5156 255° West 368 423 24,000  Level Houston Center
Sun 08:21:04 AM 30.3775 -93.6206 255° West 383 441 24,000 -344 Level Houston Center
Sun 08:22:05 AM 30.3500 -93.7381 255° West 382 440 23,300 -1,525 Descending Houston Center
Sun 08:23:06 AM 30.3242 -93.8464 255° West 357 411 20,900 -2,479 Descending Houston Center
Sun 08:24:06 AM 30.2931 -93.9747 254° West 347 399 18,300 -2,330 Descending Houston Center
Sun 08:24:49 AM 30.2742 -94.0519 254° West 340 391 16,900 -1,967 Descending Houston Center
Sun 08:25:07 AM 30.2681 -94.0792 255° West 340 391 16,300 -2,066 Descending Houston Center
Sun 08:25:50 AM 30.2486 -94.1522 253° West 334 384 14,800 -2,262 Descending Houston Center
Sun 08:26:08 AM 30.2433 -94.1819 258° West 334 384 14,000 -1,869 Descending Houston Center
Sun 08:26:51 AM 30.2233 -94.2572 253° West 323 372 12,900 -1,475 Descending Houston Center
Sun 08:27:09 AM 30.2197 -94.2808 260° West 321 369 12,500 -787 Descending Houston Center
Sun 08:27:52 AM 30.2011 -94.3497 253° West 310 357 12,100 -590 Descending Houston Center
Sun 08:28:10 AM 30.1964 -94.3775 259° West 314 361 11,900  Descending Houston Center
Sun 08:28:59 AM 30.1808 -94.4658 259° West 314 361 12,100  Climbing Houston Center
Sun 08:29:11 AM 30.1794 -94.4769 262° West 316 364 11,900 -111 Descending Houston Center
Sun 08:29:53 AM 30.1647 -94.5575 258° West 320 368 12,000 98 Climbing Houston Center
Sun 08:30:12 AM 30.1619 -94.5822 263° West 318 366 12,000 98 Level Houston Center
Sun 08:30:54 AM 30.1472 -94.6589 257° West 315 362 12,100  Climbing Houston Center
Sun 08:31:12 AM 30.1453 -94.6803 264° West 313 360 12,000  Descending Houston Center
Sun 08:31:55 AM 30.1311 -94.7528 257° West 303 349 12,100  Climbing Houston Center
Sun 08:32:13 AM 30.1289 -94.7758 264° West 306 352 12,000  Descending Houston Center
Sun 08:32:56 AM 30.1150 -94.8492 258° West 306 352 12,100  Climbing Houston Center
Sun 08:33:14 AM 30.1114 -94.8719 260° West 306 352 12,000 -655 Descending Houston Center
Sun 08:33:51 AM 30.1044 -94.9375 263° West 295 339 11,500 -984 Descending Houston Center
Sun 08:34:15 AM 30.1075 -94.9667 277° West 298 343 11,000 -1,455 Descending Houston Center
Sun 08:34:57 AM 30.1056 -95.0386 268° West 257 296 9,900 -1,377 Descending Houston Center
Sun 08:35:16 AM 30.1069 -95.0506 278° West 275 316 9,600 -1,425 Descending Houston Center
Sun 08:36:17 AM 30.1075 -95.1278 270° West 253 291 8,000 -1,631 Descending Houston Center
Sun 08:36:59 AM 30.1053 -95.1908 268° West 233 268 6,800 -1,377 Descending Houston Center
Sun 08:37:18 AM 30.1081 -95.2011 287° West 237 273 6,600 -689 Descending Houston Center
Sun 08:38:00 AM 30.1072 -95.2583 269° West 203 234 6,100 -590 Descending Houston Center
Sun 08:38:19 AM 30.1081 -95.2689 275° West 218 251 6,000  Descending Houston Center
Sun 08:39:01 AM 30.1075 -95.3308 269° West 224 258 6,100  Climbing Houston Center
Sun 08:39:20 AM 30.1072 -95.3522 269° West 217 250 6,000 -545 Descending Houston Center
Sun 08:41:02 AM 30.1056 -95.4711 269° West 209 241 5,000 -738 Descending Houston Center
Sun 08:41:22 AM 30.1061 -95.4886 272° West 211 243 4,500 -1,527 Descending Houston Center
Sun 08:41:57 AM 30.1050 -95.5339 268° West 215 247 3,600 -1,180 Descending Houston Center
Sun 08:42:23 AM 30.1067 -95.5556 275° West 212 244 3,300 -483 Descending Houston Center
Sun 08:43:24 AM 30.0597 -95.5956 216° Southwest 240 276 2,900 -111 Descending Houston Center
Sun 08:44:11 AM 30.0069 -95.5889 174° South 204 235 3,100 98 Climbing Houston Center
Sun 08:44:25 AM 30.0053 -95.5828 107° East 227 261 3,000 -90 Descending Houston Center
Sun 08:45:18 AM 29.9925 -95.5208 103° East 192 221 3,000 -200 Level Houston Center
Sun 08:45:25 AM 29.9928 -95.5208 360° North 203 234 2,800 -857 Descending Houston Center
Sun 08:46:07 AM 29.9925 -95.4750 90° East 159 183 2,300 -787 Descending Houston Center
Sun 08:46:26 AM 29.9944 -95.4644 78° East 184 212 2,000 -800 Descending Houston Center
Sun 08:47:07 AM 29.9928 -95.4314 93° East 113 130 1,500 -787 Descending Houston Center
Sun 08:47:27 AM 29.9942 -95.4231 79° East 156 180 1,200 -590 Descending Houston Center
Sun 08:48:08 AM 29.9933 -95.3903 92° East 130 150 900 -484 Descending Houston Center
Sun 08:48:29 AM 29.9936 -95.3847 87° East 129 148 700 -439 Descending Houston Center
Sun 08:49:30 AM 29.9931 -95.3381 91° East 126 145 300 -393 Descending Houston Center

Login

Don't have an account? Register now (free) for customized features, flight alerts, and more!